createdAt,value
2019-03-19T00:02:20.644Z,2.38
2019-03-19T00:04:48.878Z,2.38
2019-03-19T00:07:17.142Z,2.36
2019-03-19T00:09:45.366Z,2.34
2019-03-19T00:12:13.591Z,2.31
2019-03-19T00:14:41.842Z,2.29
2019-03-19T00:17:10.305Z,2.29
2019-03-19T00:19:38.778Z,2.25
2019-03-19T00:22:07.233Z,2.25
2019-03-19T00:24:35.480Z,2.23
2019-03-19T00:27:03.959Z,2.21
2019-03-19T00:29:32.422Z,2.19
2019-03-19T00:32:00.662Z,2.16
2019-03-19T00:34:28.907Z,2.15
2019-03-19T00:36:57.383Z,1.98
2019-03-19T00:39:25.691Z,2.03
2019-03-19T00:41:53.869Z,2.00
2019-03-19T00:44:22.115Z,1.96
2019-03-19T00:46:50.357Z,1.93
2019-03-19T00:49:18.596Z,1.91
2019-03-19T00:51:46.827Z,1.88
2019-03-19T00:54:15.074Z,1.87
2019-03-19T00:56:43.312Z,1.86
2019-03-19T00:59:11.798Z,1.82
2019-03-19T01:01:40.035Z,1.77
2019-03-19T01:04:08.509Z,1.79
2019-03-19T01:06:36.808Z,1.77
2019-03-19T01:09:06.787Z,1.82
2019-03-19T01:11:35.046Z,1.84
2019-03-19T01:14:03.296Z,1.91
2019-03-19T01:16:31.766Z,2.01
2019-03-19T01:18:59.994Z,2.10
2019-03-19T01:21:28.241Z,2.20
2019-03-19T01:23:56.706Z,2.29
2019-03-19T01:26:25.183Z,2.37
2019-03-19T01:28:53.414Z,2.43
2019-03-19T01:31:21.660Z,2.57
2019-03-19T01:33:49.896Z,2.66
2019-03-19T01:36:18.372Z,2.72
2019-03-19T01:38:46.660Z,2.76
2019-03-19T01:41:15.135Z,2.80
2019-03-19T01:43:43.367Z,2.82
2019-03-19T01:46:11.614Z,2.85
2019-03-19T01:48:39.842Z,2.84
2019-03-19T01:51:08.320Z,2.85
2019-03-19T01:53:36.548Z,2.86
2019-03-19T01:56:05.667Z,2.85
2019-03-19T01:58:34.144Z,2.85
2019-03-19T02:01:02.383Z,2.82
2019-03-19T02:06:06.294Z,2.83
2019-03-19T02:08:34.529Z,2.81
2019-03-19T02:11:03.086Z,2.78
2019-03-19T02:13:31.548Z,2.68
2019-03-19T02:15:59.783Z,2.62
2019-03-19T02:18:28.017Z,2.58
2019-03-19T02:20:56.278Z,2.55
2019-03-19T02:23:24.488Z,2.55
2019-03-19T02:25:52.897Z,2.54
2019-03-19T02:28:21.359Z,2.54
2019-03-19T02:30:49.609Z,2.54
2019-03-19T02:33:17.825Z,2.56
2019-03-19T02:35:46.068Z,2.59
2019-03-19T02:38:14.523Z,2.60
2019-03-19T02:40:42.998Z,2.63
2019-03-19T02:43:11.227Z,2.64
2019-03-19T02:45:39.690Z,2.67
2019-03-19T02:48:08.162Z,2.67
2019-03-19T02:50:36.609Z,2.69
2019-03-19T02:53:04.847Z,2.70
2019-03-19T02:55:33.081Z,2.70
2019-03-19T02:58:01.373Z,2.71
2019-03-19T03:00:29.830Z,2.73
2019-03-19T03:02:58.063Z,2.70
2019-03-19T03:05:26.300Z,2.71
2019-03-19T03:07:54.857Z,2.71
2019-03-19T03:10:23.374Z,2.68
2019-03-19T03:12:51.625Z,2.68
2019-03-19T03:15:19.855Z,2.67
2019-03-19T03:17:48.091Z,2.68
2019-03-19T03:20:16.795Z,2.66
2019-03-19T03:22:45.196Z,2.64
2019-03-19T03:25:14.415Z,2.64
2019-03-19T03:27:42.865Z,2.64
2019-03-19T03:30:14.201Z,2.64
2019-03-19T03:32:42.442Z,2.66
2019-03-19T03:35:11.263Z,2.67
2019-03-19T03:37:39.561Z,2.68
2019-03-19T03:40:10.934Z,2.68
2019-03-19T03:42:42.558Z,2.68
2019-03-19T03:45:11.406Z,2.67
2019-03-19T03:47:39.642Z,2.66
2019-03-19T03:50:10.410Z,2.63
2019-03-19T03:52:38.660Z,2.61
2019-03-19T03:55:09.478Z,2.59
2019-03-19T03:57:37.927Z,2.60
2019-03-19T04:00:22.291Z,2.57
2019-03-19T04:02:50.556Z,2.54
2019-03-19T04:05:19.243Z,2.47
2019-03-19T04:07:47.478Z,2.42
2019-03-19T04:10:18.903Z,2.35
2019-03-19T04:12:47.206Z,2.31
2019-03-19T04:15:17.317Z,2.30
2019-03-19T04:17:45.486Z,2.32
2019-03-19T04:20:14.769Z,2.35
2019-03-19T04:22:42.994Z,2.39
2019-03-19T04:25:11.638Z,2.46
2019-03-19T04:27:40.898Z,2.51
2019-03-19T04:30:17.503Z,2.55
2019-03-19T04:32:45.794Z,2.56
2019-03-19T04:35:14.035Z,2.55
2019-03-19T04:37:42.263Z,2.54
2019-03-19T04:40:11.970Z,2.55
2019-03-19T04:42:40.270Z,2.54
2019-03-19T04:45:10.549Z,2.57
2019-03-19T04:47:39.001Z,2.56
2019-03-19T04:50:16.935Z,2.52
2019-03-19T04:52:45.458Z,2.50
2019-03-19T04:55:15.507Z,2.47
2019-03-19T04:57:43.735Z,2.44
2019-03-19T05:00:19.448Z,2.39
2019-03-19T05:02:47.677Z,2.36
2019-03-19T05:05:15.913Z,2.32
2019-03-19T05:07:44.368Z,2.30
2019-03-19T05:10:15.785Z,2.29
2019-03-19T05:12:44.039Z,2.30
2019-03-19T05:15:12.324Z,2.28
2019-03-19T05:17:40.548Z,2.27
2019-03-19T05:20:11.695Z,2.25
2019-03-19T05:22:39.924Z,2.22
2019-03-19T05:25:09.017Z,2.18
2019-03-19T05:27:37.970Z,2.14
2019-03-19T05:30:19.232Z,2.07
2019-03-19T05:32:47.476Z,2.01
2019-03-19T05:35:15.777Z,1.96
2019-03-19T05:37:44.024Z,1.92
2019-03-19T05:40:14.434Z,1.86
2019-03-19T05:42:42.669Z,1.80
2019-03-19T05:45:12.244Z,1.71
2019-03-19T05:47:40.970Z,1.63
2019-03-19T05:50:17.737Z,1.55
2019-03-19T05:52:48.310Z,1.48
2019-03-19T05:55:15.919Z,1.39
2019-03-19T05:57:49.555Z,1.33
2019-03-19T06:00:17.210Z,1.29
2019-03-19T06:02:45.444Z,1.26
2019-03-19T06:05:13.758Z,1.23
2019-03-19T06:07:41.991Z,1.20
2019-03-19T06:10:13.635Z,1.20
2019-03-19T06:12:41.858Z,1.20
2019-03-19T06:15:12.265Z,1.22
2019-03-19T06:17:40.497Z,1.26
2019-03-19T06:20:19.587Z,1.29
2019-03-19T06:22:47.807Z,1.32
2019-03-19T06:25:16.308Z,1.35
2019-03-19T06:27:44.582Z,1.35
2019-03-19T06:30:15.290Z,1.37
2019-03-19T06:32:43.750Z,1.42
2019-03-19T06:35:12.829Z,1.42
2019-03-19T06:37:41.053Z,1.53
2019-03-19T06:40:14.927Z,1.59
2019-03-19T06:42:43.164Z,1.75
2019-03-19T06:45:16.441Z,2.21
2019-03-19T06:47:44.837Z,2.70
2019-03-19T06:50:15.581Z,2.77
2019-03-19T06:52:44.038Z,2.72
2019-03-19T06:55:13.636Z,2.79
2019-03-19T06:57:41.862Z,2.71
2019-03-19T07:00:13.198Z,2.85
2019-03-19T07:02:41.435Z,2.84
2019-03-19T07:05:10.066Z,2.83
2019-03-19T07:07:38.307Z,2.85
2019-03-19T07:10:09.840Z,2.83
2019-03-19T07:12:38.304Z,2.85
2019-03-19T07:15:12.243Z,2.83
2019-03-19T07:17:40.480Z,2.89
2019-03-19T07:20:12.019Z,2.95
2019-03-19T07:22:40.254Z,2.95
2019-03-19T07:25:09.450Z,2.95
2019-03-19T07:27:37.690Z,3.07
2019-03-19T07:30:20.389Z,3.14
2019-03-19T07:32:48.853Z,3.22
2019-03-19T07:35:17.080Z,3.31
2019-03-19T07:37:45.318Z,3.31
2019-03-19T07:40:17.517Z,3.53
2019-03-19T07:42:45.761Z,3.53
2019-03-19T07:45:18.029Z,3.63
2019-03-19T07:47:46.271Z,3.82
2019-03-19T07:50:16.045Z,3.82
2019-03-19T07:52:44.293Z,3.87
2019-03-19T07:55:12.957Z,4.01
2019-03-19T07:57:41.188Z,4.01
2019-03-19T08:00:16.665Z,4.18
2019-03-19T08:02:45.307Z,4.18
2019-03-19T08:05:13.935Z,4.26
2019-03-19T08:07:42.251Z,4.34
2019-03-19T08:10:15.960Z,4.39
2019-03-19T08:12:44.203Z,4.46
2019-03-19T08:15:17.383Z,4.54
2019-03-19T08:17:45.893Z,4.62
2019-03-19T08:20:17.936Z,4.67
2019-03-19T08:22:46.450Z,4.74
2019-03-19T08:25:17.810Z,4.90
2019-03-19T08:27:46.062Z,5.04
2019-03-19T08:30:24.778Z,5.15
2019-03-19T08:32:53.330Z,5.30
2019-03-19T08:35:21.865Z,5.30
2019-03-19T08:37:50.346Z,5.46
2019-03-19T08:40:19.341Z,5.61
2019-03-19T08:42:47.577Z,5.74
2019-03-19T08:45:19.197Z,5.85
2019-03-19T08:47:47.657Z,6.00
2019-03-19T08:50:17.133Z,6.25
2019-03-19T08:52:45.595Z,6.31
2019-03-19T08:55:14.131Z,6.49
2019-03-19T08:57:42.600Z,6.49
2019-03-19T09:00:26.238Z,6.60
2019-03-19T09:02:54.728Z,6.60
2019-03-19T09:05:22.951Z,6.74
2019-03-19T09:07:51.191Z,6.75
2019-03-19T09:10:20.394Z,6.81
2019-03-19T09:12:49.150Z,6.84
2019-03-19T09:15:22.302Z,6.85
2019-03-19T09:17:50.531Z,6.92
2019-03-19T09:20:19.265Z,6.95
2019-03-19T09:22:47.507Z,6.97
2019-03-19T09:25:15.971Z,7.01
2019-03-19T09:27:44.213Z,7.14
2019-03-19T09:30:15.613Z,7.28
2019-03-19T09:32:44.071Z,7.37
2019-03-19T09:35:12.533Z,7.38
2019-03-19T09:37:44.831Z,7.46
2019-03-19T09:40:18.681Z,7.54
2019-03-19T09:42:47.133Z,7.57
2019-03-19T09:45:16.635Z,7.46
2019-03-19T09:47:45.096Z,7.38
2019-03-19T09:50:16.267Z,7.51
2019-03-19T09:52:44.490Z,7.64
2019-03-19T09:55:13.768Z,7.85
2019-03-19T09:57:42.217Z,8.01
2019-03-19T10:00:18.056Z,8.06
2019-03-19T10:02:46.511Z,7.96
2019-03-19T10:05:14.976Z,7.83
2019-03-19T10:07:43.211Z,7.76
2019-03-19T10:10:16.204Z,7.87
2019-03-19T10:12:44.664Z,7.93
2019-03-19T10:15:13.265Z,8.08
2019-03-19T10:17:41.506Z,8.20
2019-03-19T10:20:17.559Z,8.26
2019-03-19T10:22:44.822Z,8.21
2019-03-19T10:25:16.446Z,8.07
2019-03-19T10:27:44.918Z,7.95
2019-03-19T10:30:17.506Z,7.82
2019-03-19T10:32:45.812Z,7.71
2019-03-19T10:35:14.212Z,7.71
2019-03-19T10:37:42.452Z,7.85
2019-03-19T10:40:13.088Z,8.10
2019-03-19T10:42:41.553Z,8.25
2019-03-19T10:45:12.792Z,8.34
2019-03-19T10:47:41.263Z,8.48
2019-03-19T10:50:13.130Z,8.59
2019-03-19T10:52:41.370Z,8.59
2019-03-19T10:55:09.667Z,8.60
2019-03-19T10:57:38.132Z,8.68
2019-03-19T11:00:15.379Z,8.74
2019-03-19T11:02:43.848Z,8.79
2019-03-19T11:05:13.853Z,8.95
2019-03-19T11:07:42.488Z,9.14
2019-03-19T11:10:15.383Z,9.26
2019-03-19T11:12:44.194Z,9.31
2019-03-19T11:15:26.305Z,9.31
2019-03-19T11:17:54.544Z,9.27
2019-03-19T11:20:22.782Z,9.15
2019-03-19T11:22:51.021Z,9.06
2019-03-19T11:25:21.350Z,8.98
2019-03-19T11:27:49.829Z,9.00
2019-03-19T11:30:26.727Z,9.00
2019-03-19T11:32:55.260Z,9.09
2019-03-19T11:35:23.502Z,9.11
2019-03-19T11:37:51.960Z,9.29
2019-03-19T11:40:20.831Z,9.49
2019-03-19T11:42:49.637Z,9.74
2019-03-19T11:45:21.263Z,9.97
2019-03-19T11:47:49.808Z,10.03
2019-03-19T11:50:20.439Z,9.91
2019-03-19T11:52:48.761Z,9.83
2019-03-19T11:55:17.569Z,9.70
2019-03-19T11:57:45.800Z,9.58
2019-03-19T12:00:26.724Z,9.49
2019-03-19T12:02:54.973Z,9.50
2019-03-19T12:05:23.200Z,9.64
2019-03-19T12:07:51.690Z,9.71
2019-03-19T12:10:20.157Z,9.73
2019-03-19T12:12:48.388Z,9.74
2019-03-19T12:15:16.631Z,9.78
2019-03-19T12:17:45.082Z,9.70
2019-03-19T12:20:14.167Z,9.58
2019-03-19T12:22:42.618Z,9.48
2019-03-19T12:25:12.201Z,9.38
2019-03-19T12:27:40.718Z,9.33
2019-03-19T12:30:21.742Z,9.29
2019-03-19T12:32:42.080Z,9.25
2019-03-19T12:35:11.456Z,9.30
2019-03-19T12:37:39.683Z,9.30
2019-03-19T12:40:18.072Z,9.30
2019-03-19T12:42:46.375Z,9.26
2019-03-19T12:45:18.619Z,9.37
2019-03-19T12:47:47.085Z,9.37
2019-03-19T12:50:20.079Z,9.37
2019-03-19T12:52:48.526Z,9.40
2019-03-19T12:55:17.052Z,9.47
2019-03-19T12:57:45.281Z,9.53
2019-03-19T13:00:21.149Z,9.53
2019-03-19T13:02:49.445Z,9.57
2019-03-19T13:05:17.909Z,9.59
2019-03-19T13:07:46.139Z,9.59
2019-03-19T13:10:23.642Z,9.59
2019-03-19T13:12:51.872Z,9.59
2019-03-19T13:15:20.579Z,9.57
2019-03-19T13:17:48.812Z,9.60
2019-03-19T13:20:24.512Z,9.62
2019-03-19T13:22:52.739Z,9.57
2019-03-19T13:25:27.067Z,9.62
2019-03-19T13:27:55.305Z,9.68
2019-03-19T13:30:28.643Z,9.70
2019-03-19T13:32:57.098Z,9.71
2019-03-19T13:35:25.322Z,9.68
2019-03-19T13:37:53.822Z,9.69
2019-03-19T13:40:22.374Z,9.76
2019-03-19T13:42:50.641Z,9.84
2019-03-19T13:45:21.220Z,9.86
2019-03-19T13:47:49.707Z,9.89
2019-03-19T13:50:18.779Z,9.90
2019-03-19T13:52:47.015Z,9.91
2019-03-19T13:55:22.831Z,9.92
2019-03-19T13:57:51.073Z,9.92
2019-03-19T14:00:19.771Z,9.85
2019-03-19T14:02:48.229Z,9.77
2019-03-19T14:05:19.665Z,9.73
2019-03-19T14:07:48.211Z,9.77
2019-03-19T14:10:17.707Z,9.87
2019-03-19T14:12:46.028Z,10.04
2019-03-19T14:15:16.285Z,10.18
2019-03-19T14:17:44.522Z,10.36
2019-03-19T14:20:15.327Z,10.58
2019-03-19T14:22:45.127Z,10.78
2019-03-19T14:25:14.672Z,10.88
2019-03-19T14:27:43.437Z,10.92
2019-03-19T14:30:23.587Z,11.00
2019-03-19T14:32:52.059Z,11.01
2019-03-19T14:35:20.519Z,11.09
2019-03-19T14:37:48.775Z,11.17
2019-03-19T14:40:18.579Z,11.30
2019-03-19T14:42:46.890Z,11.28
2019-03-19T14:45:16.327Z,11.37
2019-03-19T14:47:44.573Z,11.43
2019-03-19T14:50:18.270Z,11.41
2019-03-19T14:52:46.931Z,11.45
2019-03-19T14:55:15.165Z,11.54
2019-03-19T14:57:43.657Z,11.56
2019-03-19T15:00:16.657Z,11.56
2019-03-19T15:02:44.911Z,11.52
2019-03-19T15:05:14.276Z,11.58
2019-03-19T15:07:42.823Z,11.61
2019-03-19T15:10:17.229Z,11.66
2019-03-19T15:12:45.714Z,11.69
2019-03-19T15:15:19.008Z,11.82
2019-03-19T15:17:47.240Z,11.78
2019-03-19T15:20:23.292Z,11.80
2019-03-19T15:22:51.520Z,11.83
2019-03-19T15:25:20.100Z,11.82
2019-03-19T15:27:48.382Z,11.84
2019-03-19T15:30:17.569Z,11.85
2019-03-19T15:32:46.343Z,11.89
2019-03-19T15:35:14.687Z,11.88
2019-03-19T15:37:42.891Z,11.86
2019-03-19T15:40:17.748Z,11.91
2019-03-19T15:42:46.242Z,11.96
2019-03-19T15:45:16.121Z,11.96
2019-03-19T15:47:44.627Z,11.97
2019-03-19T15:50:14.622Z,11.98
2019-03-19T15:52:43.126Z,11.91
2019-03-19T15:55:13.119Z,11.93
2019-03-19T15:57:41.547Z,12.00
2019-03-19T16:00:14.665Z,11.98
2019-03-19T16:02:42.906Z,11.92
2019-03-19T16:05:12.510Z,11.74
2019-03-19T16:07:40.744Z,11.55
2019-03-19T16:10:11.225Z,11.51
2019-03-19T16:12:39.750Z,11.46
2019-03-19T16:15:11.389Z,11.31
2019-03-19T16:17:39.631Z,11.17
2019-03-19T16:20:11.287Z,11.02
2019-03-19T16:22:39.768Z,10.95
2019-03-19T16:25:08.761Z,10.79
2019-03-19T16:27:37.237Z,10.66
2019-03-19T16:30:11.354Z,10.54
2019-03-19T16:32:39.837Z,10.42
2019-03-19T16:35:09.458Z,10.29
2019-03-19T16:37:38.236Z,10.17
2019-03-19T16:40:22.177Z,10.07
2019-03-19T16:42:50.661Z,10.00
2019-03-19T16:45:18.893Z,9.93
2019-03-19T16:47:47.130Z,9.83
2019-03-19T16:50:21.943Z,9.79
2019-03-19T16:52:50.187Z,9.73
2019-03-19T16:55:20.429Z,9.69
2019-03-19T16:57:48.736Z,9.62
2019-03-19T17:00:23.137Z,9.58
2019-03-19T17:02:51.618Z,9.53
2019-03-19T17:05:19.845Z,9.48
2019-03-19T17:07:48.386Z,9.42
2019-03-19T17:10:27.412Z,9.35
2019-03-19T17:12:55.721Z,9.28
2019-03-19T17:15:24.233Z,9.26
2019-03-19T17:17:52.646Z,9.19
2019-03-19T17:20:21.100Z,9.10
2019-03-19T17:22:49.569Z,9.03
2019-03-19T17:25:24.662Z,8.94
2019-03-19T17:27:52.898Z,8.89
2019-03-19T17:30:34.378Z,8.81
2019-03-19T17:33:02.842Z,8.73
2019-03-19T17:35:31.300Z,8.65
2019-03-19T17:37:59.773Z,8.57
2019-03-19T17:40:28.222Z,8.45
2019-03-19T17:42:56.467Z,8.36
2019-03-19T17:45:24.917Z,8.28
2019-03-19T17:47:53.161Z,8.17
2019-03-19T17:50:24.842Z,8.02
2019-03-19T17:52:54.427Z,7.91
2019-03-19T17:55:22.747Z,7.78
2019-03-19T17:57:50.984Z,7.68
2019-03-19T18:00:24.456Z,7.59
2019-03-19T18:02:52.928Z,7.45
2019-03-19T18:05:21.451Z,7.39
2019-03-19T18:07:49.917Z,7.29
2019-03-19T18:10:18.219Z,7.18
2019-03-19T18:12:46.526Z,7.10
2019-03-19T18:15:18.899Z,7.02
2019-03-19T18:17:47.370Z,6.92
2019-03-19T18:20:17.599Z,6.82
2019-03-19T18:22:46.138Z,6.72
2019-03-19T18:25:16.376Z,6.63
2019-03-19T18:27:44.850Z,6.55
2019-03-19T18:30:18.041Z,6.45
2019-03-19T18:32:46.510Z,6.35
2019-03-19T18:35:15.037Z,6.27
2019-03-19T18:37:43.503Z,6.16
2019-03-19T18:40:17.867Z,6.09
2019-03-19T18:42:46.090Z,6.02
2019-03-19T18:45:18.874Z,5.95
2019-03-19T18:47:47.113Z,5.90
2019-03-19T18:50:17.461Z,5.84
2019-03-19T18:52:45.702Z,5.71
2019-03-19T18:55:14.239Z,5.71
2019-03-19T18:57:42.794Z,5.51
2019-03-19T19:00:16.780Z,5.51
2019-03-19T19:02:50.060Z,5.55
2019-03-19T19:05:16.034Z,5.48
2019-03-19T19:07:44.582Z,5.43
2019-03-19T19:10:16.403Z,5.25
2019-03-19T19:12:44.860Z,5.28
2019-03-19T19:15:17.887Z,5.23
2019-03-19T19:17:46.339Z,5.17
2019-03-19T19:20:15.269Z,4.97
2019-03-19T19:22:43.795Z,5.01
2019-03-19T19:25:16.326Z,4.97
2019-03-19T19:27:44.848Z,4.86
2019-03-19T19:30:24.478Z,4.91
2019-03-19T19:33:00.836Z,4.80
2019-03-19T19:35:22.682Z,4.80
2019-03-19T19:37:51.135Z,4.69
2019-03-19T19:40:19.600Z,4.83
2019-03-19T19:42:48.056Z,4.79
2019-03-19T19:45:17.471Z,4.69
2019-03-19T19:47:45.705Z,4.69
2019-03-19T19:50:18.635Z,4.58
2019-03-19T19:52:46.858Z,4.58
2019-03-19T19:55:15.718Z,4.57
2019-03-19T19:57:44.498Z,4.55
2019-03-19T20:00:16.713Z,4.52
2019-03-19T20:02:45.291Z,4.47
2019-03-19T20:05:13.817Z,4.38
2019-03-19T20:07:42.069Z,4.38
2019-03-19T20:10:17.745Z,4.43
2019-03-19T20:12:46.278Z,4.41
2019-03-19T20:15:14.577Z,4.35
2019-03-19T20:17:43.143Z,4.23
2019-03-19T20:20:19.197Z,4.23
2019-03-19T20:22:47.682Z,4.15
2019-03-19T20:25:15.930Z,4.08
2019-03-19T20:27:44.444Z,4.02
2019-03-19T20:30:23.264Z,3.90
2019-03-19T20:32:51.512Z,3.93
2019-03-19T20:35:19.739Z,3.93
2019-03-19T20:37:48.307Z,3.93
2019-03-19T20:40:17.213Z,3.92
2019-03-19T20:42:46.090Z,3.89
2019-03-19T20:45:16.838Z,3.89
2019-03-19T20:47:45.083Z,3.87
2019-03-19T20:50:16.322Z,3.83
2019-03-19T20:52:44.563Z,3.83
2019-03-19T20:55:12.789Z,3.75
2019-03-19T20:57:41.253Z,3.72
2019-03-19T21:00:12.401Z,3.67
2019-03-19T21:02:40.644Z,3.57
2019-03-19T21:05:09.173Z,3.62
2019-03-19T21:07:37.419Z,3.62
2019-03-19T21:10:14.366Z,3.59
2019-03-19T21:12:42.599Z,3.64
2019-03-19T21:15:21.466Z,3.62
2019-03-19T21:17:49.712Z,3.61
2019-03-19T21:20:17.941Z,3.63
2019-03-19T21:22:46.410Z,3.63
2019-03-19T21:25:14.874Z,3.60
2019-03-19T21:27:43.122Z,3.55
2019-03-19T21:30:20.330Z,3.48
2019-03-19T21:32:48.631Z,3.42
2019-03-19T21:35:21.877Z,3.20
2019-03-19T21:37:50.256Z,3.31
2019-03-19T21:40:18.551Z,3.28
2019-03-19T21:42:47.580Z,3.25
2019-03-19T21:45:18.120Z,3.23
2019-03-19T21:47:46.674Z,3.23
2019-03-19T21:50:19.554Z,3.18
2019-03-19T21:52:47.782Z,3.07
2019-03-19T21:55:16.029Z,3.13
2019-03-19T21:57:44.255Z,3.04
2019-03-19T22:00:20.090Z,3.04
2019-03-19T22:02:48.550Z,3.01
2019-03-19T22:05:17.025Z,2.95
2019-03-19T22:07:45.344Z,2.92
2019-03-19T22:10:21.136Z,2.88
2019-03-19T22:12:49.881Z,2.86
2019-03-19T22:15:23.900Z,2.84
2019-03-19T22:17:52.209Z,2.81
2019-03-19T22:20:20.683Z,2.79
2019-03-19T22:22:49.175Z,2.76
2019-03-19T22:25:17.643Z,2.76
2019-03-19T22:27:46.134Z,2.74
2019-03-19T22:30:21.992Z,2.74
2019-03-19T22:32:50.448Z,2.72
2019-03-19T22:35:18.684Z,2.67
2019-03-19T22:37:47.313Z,2.63
2019-03-19T22:40:16.306Z,2.60
2019-03-19T22:42:44.523Z,2.56
2019-03-19T22:45:17.966Z,2.54
2019-03-19T22:47:46.511Z,2.50
2019-03-19T22:50:16.667Z,2.44
2019-03-19T22:52:44.915Z,2.39
2019-03-19T22:55:13.886Z,2.32
2019-03-19T22:57:42.416Z,2.34
2019-03-19T23:00:18.879Z,2.31
2019-03-19T23:02:47.418Z,2.30
2019-03-19T23:05:15.727Z,2.31
2019-03-19T23:07:43.961Z,2.28
2019-03-19T23:10:12.434Z,2.25
2019-03-19T23:12:40.894Z,2.26
2019-03-19T23:15:11.335Z,2.24
2019-03-19T23:17:39.589Z,2.29
2019-03-19T23:20:10.120Z,2.24
2019-03-19T23:22:38.435Z,2.21
2019-03-19T23:25:06.993Z,2.21
2019-03-19T23:27:35.235Z,2.15
2019-03-19T23:30:05.163Z,2.10
2019-03-19T23:32:33.382Z,2.10
2019-03-19T23:35:01.611Z,2.06
2019-03-19T23:37:29.865Z,2.05
2019-03-19T23:39:58.330Z,2.04
2019-03-19T23:42:26.579Z,2.00
2019-03-19T23:44:55.033Z,2.00
2019-03-19T23:47:23.510Z,2.00
2019-03-19T23:49:51.746Z,2.01
2019-03-19T23:52:19.993Z,2.00
2019-03-19T23:54:48.463Z,1.98
2019-03-19T23:57:16.705Z,1.94
2019-03-19T23:59:44.938Z,1.90
